Baudette, MN

6:53 AM CDT on April 26, 2017 (GMT -0500)
Baudette International | | Change Station

Elev 1083 ft 48.73 °N, 94.61 °W | Updated 26 minutes ago

Overcast
Overcast
24 °F
Feels Like 11 °F
N
16
Wind Variable Wind from NE
Gusts 21 mph

Today
High -- | Low -- °F
--% Chance of Precip.
Yesterday
High -- | Low -- °F
Precip. -- in
Pressure 29.83 in
Visibility 9.0 miles
Clouds Overcast 1300 ft
Windchill 11 °F
Dew Point 20 °F
Humidity 84%
Rainfall 0.00 in
Snow Depth Not available.
6:06 AM 8:26 PM
Waning Crescent, 0% visible
SPECI KBDE 261127Z AUTO 05014G18KT 9SM OVC013 M04/M07 A2983 RMK AO2 T10441067
Pressure 29.83 in
Visibility 9.0 miles
Clouds Overcast 1300 ft
Windchill 11 °F
Dew Point 20 °F
Humidity 84%
Rainfall 0.00 in
Snow Depth Not available.
6:06 AM 8:26 PM
Waning Crescent, 0% visible
SPECI KBDE 261127Z AUTO 05014G18KT 9SM OVC013 M04/M07 A2983 RMK AO2 T10441067

Get Severe Weather Alerts

Thanks for signing up!

Be on the lookout for a verification email in your inbox.

You'll start receiving the daily forecast at 8 AM.

×

10-Day Weather Forecast

Almanac

Astronomy

Apr. 26, 2017 Rise Set
Actual Time
Civil Twilight
Nautical Twilight
Astronomical Twilight
Moon
Length of Visible Light
Length of Day
Tomorrow will be .
, % of the Moon is Illuminated

Today's Extremes

State Highs State Lows

Community

WunderPhotos

WunderBlog® & News

Nearby

Air Quality

  Air Quality AQ Index Pollutant
Not available.

Snow Depth

Station Depth Elevation

Earthquake Activity

City Distance Mag. Time & Date
Minimum magnitude displayed is 2.5.

Coastal Water Temperatures

Place Temperature

Stations

Nearby Weather Stations

Station Location Temp. Windchill Dew Point Humidity Wind Precip. Elev Updated Type
                   

Watches & Warnings

There are currently no watches in effect.